Time;durP1;ratioP1;P1;durP2;ratioP2;P2;SDS_P1;SDS_P2;PMS_P1;PMS_P2;Temp;Humidity;BMP_temperature;BMP_pressure;BME280_temperature;BME280_humidity;BME280_pressure;Samples;Min_cycle;Max_cycle;Signal;HPM_P1;HPM_P2
2022/08/05 00:00:13;;;;;;;6.82;3.80;;;;;;;21.51;74.19;101501.69;4948501;28;20062;-68
2022/08/05 00:02:39;;;;;;;8.80;4.18;;;;;;;21.53;74.96;101502.53;4946748;28;20134;-68
2022/08/05 00:05:05;;;;;;;6.68;4.07;;;;;;;21.56;74.70;101508.63;4956449;28;20118;-68
2022/08/05 00:07:30;;;;;;;5.95;4.00;;;;;;;21.50;75.51;101508.66;4948096;28;20038;-69
2022/08/05 00:09:55;;;;;;;8.68;4.25;;;;;;;21.48;75.17;101506.91;4949819;28;20073;-67
2022/08/05 00:12:21;;;;;;;8.80;4.30;;;;;;;21.49;75.24;101511.28;4948483;28;20031;-67
2022/08/05 00:14:46;;;;;;;8.10;4.15;;;;;;;21.47;75.29;101515.66;4933189;28;20039;-67
2022/08/05 00:17:11;;;;;;;9.48;4.15;;;;;;;21.46;75.68;101503.44;4946845;28;20468;-67
2022/08/05 00:19:37;;;;;;;11.48;4.30;;;;;;;21.48;75.62;101509.53;4946677;28;20039;-68
2022/08/05 00:22:03;;;;;;;8.25;4.22;;;;;;;21.47;75.96;101505.19;4945569;28;20035;-68
2022/08/05 00:24:28;;;;;;;7.53;4.20;;;;;;;21.50;75.14;101507.78;4944956;28;20043;-68
2022/08/05 00:26:54;;;;;;;10.10;4.32;;;;;;;21.49;75.42;101512.16;4948308;28;20055;-67
2022/08/05 00:29:22;;;;;;;9.18;4.45;;;;;;;21.53;75.50;101505.13;4949450;28;20073;-67
2022/08/05 00:31:47;;;;;;;9.60;3.78;;;;;;;21.46;74.81;101503.44;4942794;28;20019;-68
2022/08/05 00:34:13;;;;;;;6.55;4.25;;;;;;;21.45;76.05;101493.88;4945237;28;20042;-67
2022/08/05 00:36:39;;;;;;;7.82;4.20;;;;;;;21.39;75.75;101498.25;4949512;28;20139;-67
2022/08/05 00:39:04;;;;;;;9.70;4.40;;;;;;;21.41;76.75;101499.09;4950228;28;20542;-67
2022/08/05 00:41:32;;;;;;;7.07;4.07;;;;;;;21.40;76.87;101512.19;4946714;28;20042;-68
2022/08/05 00:43:58;;;;;;;8.82;4.47;;;;;;;21.39;76.77;101513.09;4937307;28;20067;-67
2022/08/05 00:46:23;;;;;;;7.93;4.32;;;;;;;21.40;76.32;101522.66;4946469;28;20059;-67
2022/08/05 00:48:49;;;;;;;9.65;4.35;;;;;;;21.39;76.38;101520.94;4953344;28;20050;-67
2022/08/05 00:51:15;;;;;;;7.82;4.18;;;;;;;21.37;76.60;101513.09;4947424;28;20358;-68
2022/08/05 00:53:40;;;;;;;10.15;4.35;;;;;;;21.42;75.72;101518.31;4949554;28;20817;-67
2022/08/05 00:56:06;;;;;;;9.07;4.50;;;;;;;21.40;76.36;101514.81;4933741;28;20035;-67
2022/08/05 00:58:32;;;;;;;8.40;4.20;;;;;;;21.34;76.39;101518.34;4949396;28;20059;-67
2022/08/05 01:00:57;;;;;;;6.63;3.95;;;;;;;21.33;76.38;101515.75;4950216;28;20067;-67
2022/08/05 01:03:24;;;;;;;9.02;4.03;;;;;;;21.34;76.95;101515.72;4949792;28;20078;-68
2022/08/05 01:05:50;;;;;;;9.82;4.30;;;;;;;21.34;77.06;101525.31;4950886;28;20035;-67
2022/08/05 01:08:16;;;;;;;7.40;3.92;;;;;;;21.35;76.92;101525.31;4951240;28;20114;-68
2022/08/05 01:11:20;;;;;;;11.25;4.40;;;;;;;21.48;76.09;101525.22;4951696;28;20119;-69
2022/08/05 01:14:02;;;;;;;7.88;3.90;;;;;;;21.45;76.41;101535.72;4965123;28;20553;-69
2022/08/05 01:16:37;;;;;;;8.98;4.32;;;;;;;21.37;77.38;101530.56;4948427;28;20089;-68
2022/08/05 01:19:22;;;;;;;8.70;4.28;;;;;;;21.39;76.28;101540.13;4947402;28;20038;-69
2022/08/05 01:22:16;;;;;;;11.68;4.07;;;;;;;21.45;75.94;101543.56;4951497;28;20035;-72
2022/08/05 01:25:04;;;;;;;8.85;3.78;;;;;;;21.36;76.37;101537.53;4952318;28;20046;-71
2022/08/05 01:28:07;;;;;;;7.07;3.45;;;;;;;21.39;76.33;101554.94;4951061;28;20035;-72
2022/08/05 01:30:38;;;;;;;7.95;3.33;;;;;;;21.35;76.68;101561.94;4948194;28;20035;-72
2022/08/05 01:33:06;;;;;;;10.13;3.40;;;;;;;21.32;76.59;101567.19;4948268;28;20104;-72
2022/08/05 01:35:34;;;;;;;10.80;3.78;;;;;;;21.32;76.35;101582.03;4951005;28;20023;-72
2022/08/05 01:38:02;;;;;;;6.95;3.25;;;;;;;21.26;75.95;101576.78;4953951;28;20031;-72
2022/08/05 01:40:30;;;;;;;6.82;3.05;;;;;;;21.23;75.77;101582.88;4959813;28;20106;-72
2022/08/05 01:42:57;;;;;;;8.23;3.17;;;;;;;21.22;75.76;101573.31;4949063;28;20027;-72
2022/08/05 01:45:25;;;;;;;8.85;3.35;;;;;;;21.27;75.82;101578.53;4949122;28;20168;-72
2022/08/05 01:47:53;;;;;;;9.30;3.25;;;;;;;21.27;75.41;101574.16;4948910;28;20038;-72
2022/08/05 01:50:26;;;;;;;7.97;3.13;;;;;;;21.25;76.11;101567.22;4950708;28;20026;-72
2022/08/05 01:52:54;;;;;;;8.65;3.40;;;;;;;21.22;75.70;101565.44;4952396;28;20293;-72
2022/08/05 01:55:22;;;;;;;10.77;3.80;;;;;;;21.23;76.15;101566.31;4953642;28;20043;-72
2022/08/05 01:57:51;;;;;;;7.75;3.22;;;;;;;21.23;75.66;101561.97;4950780;28;20030;-72
2022/08/05 02:00:17;;;;;;;;;;;;;;;21.41;74.19;101556.66;4951290;28;20035;-73
2022/08/05 02:02:51;;;;;;;7.50;3.25;;;;;;;21.21;75.37;101545.41;4954018;28;19921;-73
2022/08/05 02:05:19;;;;;;;9.32;3.10;;;;;;;21.15;75.91;101548.94;4948759;28;20027;-70
2022/08/05 02:07:45;;;;;;;9.35;3.72;;;;;;;21.10;75.07;101532.38;4948939;28;20089;-71
2022/08/05 02:10:11;;;;;;;9.48;3.47;;;;;;;20.93;75.16;101531.63;4945643;28;20458;-72
2022/08/05 02:12:36;;;;;;;11.20;3.83;;;;;;;20.97;75.72;101527.22;4950036;28;20035;-73
2022/08/05 02:15:20;;;;;;;8.75;3.90;;;;;;;20.99;76.27;101531.59;4950082;28;20051;-72
2022/08/05 02:18:05;;;;;;;8.23;3.67;;;;;;;21.02;75.57;101538.53;4946628;28;20130;-73
2022/08/05 02:20:46;;;;;;;9.45;3.70;;;;;;;20.96;75.53;101522.88;4956877;28;20039;-73
2022/08/05 02:23:13;;;;;;;8.52;3.70;;;;;;;20.76;76.04;101502.91;4948247;29;20030;-72
2022/08/05 02:25:42;;;;;;;11.07;3.80;;;;;;;20.84;76.58;101527.28;4964699;28;20128;-73
2022/08/05 02:28:11;;;;;;;9.73;3.70;;;;;;;20.80;76.31;101528.16;4951784;28;20027;-71
2022/08/05 02:30:41;;;;;;;10.23;3.80;;;;;;;20.85;76.04;101529.00;4946472;28;20102;-72
2022/08/05 02:33:08;;;;;;;10.43;3.70;;;;;;;20.83;75.89;101522.94;4952543;28;20073;-72
2022/08/05 02:35:36;;;;;;;8.88;4.18;;;;;;;20.77;76.28;101528.19;4951343;28;20027;-72
2022/08/05 02:38:01;;;;;;;10.05;4.03;;;;;;;20.82;76.81;101539.50;4950174;28;20039;-72
2022/08/05 02:40:28;;;;;;;10.15;3.70;;;;;;;20.80;76.28;101558.66;4958868;28;20093;-72
2022/08/05 02:42:55;;;;;;;9.07;3.78;;;;;;;20.76;75.55;101563.03;4951209;28;20030;-71
2022/08/05 02:45:22;;;;;;;9.38;4.00;;;;;;;20.82;76.04;101575.22;4947874;28;20038;-72
2022/08/05 02:47:50;;;;;;;10.98;4.47;;;;;;;20.79;75.62;101560.41;4950903;28;20032;-72
2022/08/05 02:50:16;;;;;;;12.05;3.58;;;;;;;20.82;75.48;101555.16;4949732;28;20032;-71
2022/08/05 02:52:44;;;;;;;6.88;3.22;;;;;;;20.84;75.09;101557.78;4951053;28;20046;-70
2022/08/05 02:55:11;;;;;;;9.13;3.78;;;;;;;20.81;74.67;101556.06;4948154;28;20039;-73
2022/08/05 02:57:38;;;;;;;8.50;3.50;;;;;;;20.81;74.58;101552.53;4946940;29;20044;-72
2022/08/05 03:00:05;;;;;;;11.07;3.60;;;;;;;20.79;75.61;101551.69;4949299;28;20122;-72
2022/08/05 03:02:38;;;;;;;8.65;3.80;;;;;;;20.82;75.00;101538.63;4949835;28;20027;-72
2022/08/05 03:05:07;;;;;;;9.30;4.13;;;;;;;20.79;75.46;101526.41;4949419;28;20110;-72
2022/08/05 03:07:33;;;;;;;7.65;3.47;;;;;;;20.73;75.86;101513.38;4948341;28;20042;-72
2022/08/05 03:09:59;;;;;;;10.38;3.80;;;;;;;20.75;76.25;101531.66;4946148;28;20036;-72
2022/08/05 03:12:34;;;;;;;9.85;3.95;;;;;;;20.75;75.92;101524.72;4949522;29;20076;-72
2022/08/05 03:15:00;;;;;;;9.32;3.72;;;;;;;20.73;75.64;101526.44;4946340;28;20359;-72
2022/08/05 03:17:26;;;;;;;9.93;4.03;;;;;;;20.67;75.33;101538.66;4945236;28;20065;-72
2022/08/05 03:19:51;;;;;;;10.30;4.20;;;;;;;20.65;76.44;101538.66;4948030;28;20035;-72
2022/08/05 03:22:16;;;;;;;9.85;3.83;;;;;;;20.68;76.29;101546.47;4949075;28;20039;-72
2022/08/05 03:24:44;;;;;;;9.68;3.85;;;;;;;20.66;75.50;101552.59;4948154;28;20046;-72
2022/08/05 03:27:10;;;;;;;9.50;3.78;;;;;;;20.72;75.52;101553.44;4955989;28;20039;-72
2022/08/05 03:29:35;;;;;;;8.18;3.80;;;;;;;20.72;75.80;101556.06;4948177;28;20092;-72
2022/08/05 03:32:02;;;;;;;10.45;3.95;;;;;;;20.71;75.57;101556.94;4949543;28;20122;-71
2022/08/05 03:34:28;;;;;;;9.52;4.25;;;;;;;20.73;76.38;101573.47;4945276;28;20469;-72
2022/08/05 03:36:53;;;;;;;7.97;4.00;;;;;;;20.70;75.80;101564.78;4950017;29;20158;-72
2022/08/05 03:39:18;;;;;;;9.40;3.88;;;;;;;20.72;75.66;101579.59;4943508;28;20019;-72
2022/08/05 03:41:44;;;;;;;9.10;4.07;;;;;;;20.68;75.72;101576.97;4946020;28;20095;-72
2022/08/05 03:44:09;;;;;;;10.63;3.88;;;;;;;20.66;75.75;101571.75;4949416;28;20470;-72
2022/08/05 03:46:34;;;;;;;8.63;3.88;;;;;;;20.68;75.16;101577.84;4953215;28;20394;-72
2022/08/05 03:49:00;;;;;;;8.07;4.03;;;;;;;20.67;75.33;101557.81;4948253;28;20129;-72
2022/08/05 03:51:35;;;;;;;11.18;4.28;;;;;;;20.69;75.45;101553.47;4949187;28;20028;-72
2022/08/05 03:54:12;;;;;;;12.63;4.00;;;;;;;20.69;74.78;101561.31;4939984;28;20390;-72
2022/08/05 03:56:44;;;;;;;9.55;3.30;;;;;;;20.62;74.71;101552.59;4952651;28;20077;-72
2022/08/05 03:59:32;;;;;;;8.35;3.53;;;;;;;20.68;75.04;101554.31;4946761;28;20078;-72
2022/08/05 04:01:59;;;;;;;;;;;;;;;20.79;74.11;101539.47;4949316;28;20478;-71
2022/08/05 04:04:27;;;;;;;8.57;3.58;;;;;;;20.62;74.98;101525.59;4946295;28;19921;-72
2022/08/05 04:06:54;;;;;;;9.27;3.90;;;;;;;20.59;75.27;101518.66;4949983;28;20084;-72
2022/08/05 04:09:20;;;;;;;8.27;4.05;;;;;;;20.56;75.16;101533.44;4948305;28;20042;-72
2022/08/05 04:11:46;;;;;;;6.15;3.78;;;;;;;20.60;75.18;101538.66;4950034;28;20058;-73
2022/08/05 04:14:11;;;;;;;8.55;3.65;;;;;;;20.57;75.01;101543.91;4946083;28;20474;-71
2022/08/05 04:16:37;;;;;;;9.75;3.80;;;;;;;20.53;75.71;101536.09;4967831;28;20470;-70
2022/08/05 04:19:03;;;;;;;9.77;3.72;;;;;;;20.50;75.86;101536.06;4947694;28;20063;-71
2022/08/05 04:21:29;;;;;;;9.27;3.80;;;;;;;20.50;75.48;101547.41;4950564;28;20035;-70
2022/08/05 04:23:55;;;;;;;10.98;4.15;;;;;;;20.47;75.06;101536.09;4944334;28;20054;-72
2022/08/05 04:26:20;;;;;;;10.57;4.32;;;;;;;20.47;75.79;101547.41;4952840;28;20059;-72
2022/08/05 04:28:46;;;;;;;9.35;3.90;;;;;;;20.47;75.99;101549.16;4943165;29;20106;-71
2022/08/05 04:31:11;;;;;;;8.23;3.72;;;;;;;20.41;75.95;101554.38;4947578;28;20024;-71
2022/08/05 04:33:37;;;;;;;7.55;4.00;;;;;;;20.43;76.33;101555.22;4946113;28;20045;-72
2022/08/05 04:36:02;;;;;;;9.18;4.20;;;;;;;20.39;76.56;101561.34;4942157;28;20115;-72
2022/08/05 04:38:28;;;;;;;10.60;4.03;;;;;;;20.35;75.77;101571.78;4946145;28;20031;-72
2022/08/05 04:40:53;;;;;;;9.65;4.00;;;;;;;20.36;76.01;101565.69;4949598;28;20105;-72
2022/08/05 04:43:18;;;;;;;8.00;4.55;;;;;;;20.39;76.11;101571.78;4928597;28;20505;-72
2022/08/05 04:45:44;;;;;;;9.32;4.05;;;;;;;20.38;76.01;101572.63;4948903;28;20062;-71
2022/08/05 04:48:11;;;;;;;9.15;3.80;;;;;;;20.35;76.36;101576.13;4946599;28;20046;-72
2022/08/05 04:50:44;;;;;;;12.35;4.20;;;;;;;20.32;76.95;101573.50;4945072;29;20015;-72
2022/08/05 04:53:11;;;;;;;9.02;3.90;;;;;;;20.28;76.87;101567.44;4949578;28;20070;-72
2022/08/05 04:55:38;;;;;;;12.23;4.00;;;;;;;20.29;76.42;101577.00;4945240;28;20036;-72
2022/08/05 04:58:05;;;;;;;11.02;4.30;;;;;;;20.23;76.73;101573.53;4948897;29;20031;-71
2022/08/05 05:00:35;;;;;;;7.10;3.60;;;;;;;20.32;76.13;101579.63;4949770;28;20032;-72
2022/08/05 05:03:02;;;;;;;9.60;3.88;;;;;;;20.26;76.45;101565.69;4948624;28;20023;-73
2022/08/05 05:05:29;;;;;;;13.38;4.43;;;;;;;20.31;76.42;101574.38;4946617;28;20122;-72
2022/08/05 05:07:59;;;;;;;7.90;4.07;;;;;;;20.32;76.48;101557.84;4945527;28;20036;-71
2022/08/05 05:10:24;;;;;;;8.73;4.20;;;;;;;20.28;76.81;101570.06;4951343;28;20343;-72
2022/08/05 05:12:49;;;;;;;8.48;3.63;;;;;;;20.32;76.24;101566.56;4945505;28;20533;-72
2022/08/05 05:15:15;;;;;;;9.13;3.95;;;;;;;20.26;76.51;101566.56;4954022;28;20031;-72
2022/08/05 05:17:42;;;;;;;10.20;4.07;;;;;;;20.24;76.45;101568.31;4941766;28;20023;-72
2022/08/05 05:20:09;;;;;;;10.07;3.90;;;;;;;20.25;76.84;101569.16;4949457;28;20042;-72
2022/08/05 05:22:35;;;;;;;10.18;3.97;;;;;;;20.21;76.69;101570.94;4946282;28;20027;-72
2022/08/05 05:25:01;;;;;;;9.88;4.25;;;;;;;20.21;76.59;101576.16;4943232;28;20087;-72
2022/08/05 05:27:28;;;;;;;10.43;3.65;;;;;;;20.26;77.38;101582.25;4944150;28;20908;-72
2022/08/05 05:29:53;;;;;;;10.90;3.72;;;;;;;20.25;76.49;101582.22;4947398;28;20012;-72
2022/08/05 05:32:18;;;;;;;7.45;3.55;;;;;;;20.23;76.27;101587.47;4948658;28;20019;-72
2022/08/05 05:34:44;;;;;;;9.43;3.30;;;;;;;20.19;76.94;101583.09;4949734;28;20027;-72
2022/08/05 05:37:11;;;;;;;8.65;3.28;;;;;;;20.18;76.79;101586.59;4946422;29;20055;-71
2022/08/05 05:39:37;;;;;;;7.72;3.22;;;;;;;20.19;77.46;101592.66;4951501;28;20053;-72
2022/08/05 05:42:03;;;;;;;9.48;3.20;;;;;;;20.08;76.98;101588.34;4953475;28;20533;-72
2022/08/05 05:44:28;;;;;;;6.07;2.65;;;;;;;20.02;77.23;101592.66;4951040;28;20121;-71
2022/08/05 05:46:53;;;;;;;6.18;2.90;;;;;;;20.09;76.85;101592.69;4950303;28;20023;-72
2022/08/05 05:49:19;;;;;;;8.95;2.95;;;;;;;20.00;77.04;101590.06;4952692;28;20027;-72
2022/08/05 05:51:44;;;;;;;9.88;3.28;;;;;;;20.08;76.95;101608.31;4929834;28;20540;-72
2022/08/05 05:54:10;;;;;;;8.80;2.85;;;;;;;20.07;76.77;101604.84;4943709;28;20118;-72
2022/08/05 05:56:35;;;;;;;9.75;3.03;;;;;;;20.11;76.79;101615.31;4953885;28;20531;-72
2022/08/05 05:59:02;;;;;;;7.78;3.17;;;;;;;20.09;77.21;101608.34;4951927;28;20378;-72
2022/08/05 06:01:28;;;;;;;8.52;2.97;;;;;;;20.06;77.20;101613.56;4952313;28;20031;-72
2022/08/05 06:03:53;;;;;;;6.35;2.70;;;;;;;20.08;77.05;101617.06;4951380;28;20051;-72
2022/08/05 06:06:18;;;;;;;7.47;3.03;;;;;;;20.06;77.08;101616.16;4951679;29;20059;-72
2022/08/05 06:08:44;;;;;;;9.18;2.97;;;;;;;20.08;76.72;101616.16;4952564;28;20031;-73
2022/08/05 06:11:09;;;;;;;7.97;2.75;;;;;;;20.09;76.23;101615.31;4954228;28;20016;-72
2022/08/05 06:13:34;;;;;;;9.48;2.85;;;;;;;20.06;76.75;101620.53;4949464;28;20015;-72
2022/08/05 06:16:00;;;;;;;7.75;2.67;;;;;;;20.08;76.51;101624.00;4948582;28;20039;-72
2022/08/05 06:18:25;;;;;;;8.57;3.08;;;;;;;20.13;76.40;101624.00;4953201;28;20505;-72
2022/08/05 06:20:51;;;;;;;7.53;2.95;;;;;;;20.09;76.57;101620.53;4954491;28;20019;-72
2022/08/05 06:23:16;;;;;;;7.35;3.15;;;;;;;20.10;76.62;101622.28;4948039;28;20526;-72
2022/08/05 06:25:41;;;;;;;8.20;3.10;;;;;;;20.09;76.88;101620.53;4944971;28;20063;-72
2022/08/05 06:28:07;;;;;;;13.73;3.60;;;;;;;20.12;76.56;101619.66;4949150;28;20126;-72
2022/08/05 06:30:32;;;;;;;10.05;3.30;;;;;;;20.14;76.95;101623.13;4946624;28;20042;-72
2022/08/05 06:32:57;;;;;;;7.22;3.20;;;;;;;20.14;76.69;101620.50;4945813;29;20036;-72
2022/08/05 06:35:23;;;;;;;7.15;3.00;;;;;;;20.16;76.88;101618.78;4948475;29;20466;-72
2022/08/05 06:37:48;;;;;;;8.05;2.90;;;;;;;20.25;76.80;101627.50;4950116;28;20032;-70
2022/08/05 06:40:14;;;;;;;8.85;3.08;;;;;;;20.34;76.44;101629.25;4952090;28;20034;-71
2022/08/05 06:42:40;;;;;;;10.45;3.30;;;;;;;20.39;76.39;101635.34;4965526;28;20402;-71
2022/08/05 06:45:06;;;;;;;7.05;3.03;;;;;;;20.32;76.65;101641.41;4950037;28;20035;-70
2022/08/05 06:47:32;;;;;;;8.98;3.13;;;;;;;20.40;77.25;101641.44;4950492;28;20039;-72
2022/08/05 06:49:57;;;;;;;9.98;3.45;;;;;;;20.41;77.00;101651.88;4946913;28;20035;-71
2022/08/05 06:52:22;;;;;;;14.05;3.45;;;;;;;20.41;75.95;101648.41;4928524;29;20043;-72
2022/08/05 06:54:48;;;;;;;9.45;3.28;;;;;;;20.34;76.16;101650.16;4944759;28;20055;-71
2022/08/05 06:57:15;;;;;;;8.88;3.17;;;;;;;20.31;76.06;101650.13;4952577;28;20015;-72
2022/08/05 06:59:40;;;;;;;7.97;3.15;;;;;;;20.14;75.94;101641.41;4941015;28;20054;-71
2022/08/05 07:02:07;;;;;;;10.85;3.40;;;;;;;20.22;75.76;101656.22;4949106;28;20055;-71
2022/08/05 07:04:33;;;;;;;7.55;2.95;;;;;;;20.27;76.37;101664.94;4946886;28;20100;-71
2022/08/05 07:06:58;;;;;;;10.30;3.88;;;;;;;20.28;75.89;101661.47;4946752;28;20482;-72
2022/08/05 07:09:24;;;;;;;10.05;3.35;;;;;;;20.29;75.60;101668.41;4954514;28;20023;-72
2022/08/05 07:11:50;;;;;;;10.35;2.97;;;;;;;20.29;76.04;101678.00;4951130;28;20483;-71
2022/08/05 07:16:59;;;;;;;6.97;2.88;;;;;;;20.30;76.88;101678.00;4947789;28;20499;-72
2022/08/05 07:19:29;;;;;;;7.75;2.90;;;;;;;20.33;75.21;101682.38;4949815;28;20019;-71
2022/08/05 07:21:55;;;;;;;7.55;2.67;;;;;;;20.34;74.89;101679.75;4948918;28;20035;-72
2022/08/05 07:24:22;;;;;;;8.07;2.90;;;;;;;20.33;75.50;101679.75;4947067;28;20417;-72
2022/08/05 07:26:47;;;;;;;7.97;2.85;;;;;;;20.40;75.08;101691.06;4950672;28;20096;-72
2022/08/05 07:29:13;;;;;;;10.07;3.13;;;;;;;20.40;74.20;101696.28;4932901;29;20036;-72
2022/08/05 07:31:40;;;;;;;7.60;2.70;;;;;;;20.39;74.24;101692.81;4946341;28;20019;-72
2022/08/05 07:34:05;;;;;;;9.52;2.92;;;;;;;20.43;74.05;101691.06;4949600;28;20054;-72
2022/08/05 07:36:32;;;;;;;6.53;2.53;;;;;;;20.49;73.94;101697.19;4946358;28;20062;-71
2022/08/05 07:39:04;;;;;;;7.78;2.70;;;;;;;20.53;74.21;101698.06;4946358;28;20070;-71
2022/08/05 07:41:29;;;;;;;7.85;2.55;;;;;;;20.54;72.37;101700.69;4945301;29;20047;-71
2022/08/05 07:43:56;;;;;;;9.10;3.13;;;;;;;20.52;72.41;101698.94;4950845;28;20093;-71
2022/08/05 07:46:26;;;;;;;7.57;2.92;;;;;;;20.58;73.32;101701.56;4950104;28;20031;-71
2022/08/05 07:48:54;;;;;;;7.20;2.45;;;;;;;20.67;73.20;101698.06;4947112;28;20031;-71
2022/08/05 07:51:19;;;;;;;7.38;2.80;;;;;;;20.73;73.64;101709.38;4948496;28;20022;-71
2022/08/05 07:53:44;;;;;;;8.13;3.05;;;;;;;20.79;73.61;101719.84;4947446;28;20031;-72
2022/08/05 07:56:10;;;;;;;8.13;2.88;;;;;;;20.88;72.41;101713.75;4950675;28;20049;-70
2022/08/05 07:58:35;;;;;;;7.72;2.80;;;;;;;20.84;72.71;101712.88;4950510;28;20110;-71
2022/08/05 08:01:01;;;;;;;6.47;2.97;;;;;;;20.94;71.88;101711.13;4951821;28;20043;-71
2022/08/05 08:03:26;;;;;;;7.22;2.63;;;;;;;20.97;70.44;101715.47;4955419;28;20058;-71
2022/08/05 08:05:51;;;;;;;6.57;2.80;;;;;;;21.03;70.81;101713.72;4950786;28;20082;-71
2022/08/05 08:08:17;;;;;;;7.07;2.22;;;;;;;21.03;68.63;101725.91;4947667;28;20034;-71
2022/08/05 08:10:43;;;;;;;7.05;2.15;;;;;;;21.06;68.61;101734.63;4946499;28;20023;-71
2022/08/05 08:13:09;;;;;;;5.78;2.20;;;;;;;21.02;65.97;101734.63;4949824;28;20038;-70
2022/08/05 08:15:35;;;;;;;6.45;1.90;;;;;;;21.01;66.22;101738.13;4952056;28;20077;-71
2022/08/05 08:18:00;;;;;;;4.57;1.75;;;;;;;20.99;66.43;101735.53;4950644;28;20077;-70
2022/08/05 08:20:26;;;;;;;5.80;1.70;;;;;;;21.04;67.41;101735.50;4945932;28;20043;-70
2022/08/05 08:22:52;;;;;;;4.63;1.60;;;;;;;21.16;67.35;101743.31;4952669;28;20535;-71
2022/08/05 08:25:18;;;;;;;6.85;1.80;;;;;;;21.16;66.04;101744.19;4948769;28;20066;-72
2022/08/05 08:27:44;;;;;;;6.68;1.80;;;;;;;21.22;66.20;101751.16;4952453;28;20030;-72
2022/08/05 08:30:12;;;;;;;6.38;2.03;;;;;;;21.20;65.62;101745.06;4950443;28;20398;-71
2022/08/05 08:32:38;;;;;;;3.15;1.58;;;;;;;21.28;66.70;101745.91;4948771;29;20034;-72
2022/08/05 08:35:05;;;;;;;6.10;1.77;;;;;;;21.29;65.96;101752.91;4947318;28;20027;-72
2022/08/05 08:37:30;;;;;;;6.93;1.70;;;;;;;21.28;66.11;101753.75;4949700;28;20114;-72
2022/08/05 08:39:56;;;;;;;4.68;1.60;;;;;;;21.25;64.71;101756.41;4949662;28;20047;-71
2022/08/05 08:42:22;;;;;;;7.35;1.63;;;;;;;21.26;65.59;101757.28;4950246;28;20038;-71
2022/08/05 08:44:48;;;;;;;4.63;1.73;;;;;;;21.35;66.18;101759.88;4949269;28;20464;-71
2022/08/05 08:47:15;;;;;;;4.55;1.63;;;;;;;21.40;67.14;101758.13;4949699;28;20429;-71
2022/08/05 08:49:44;;;;;;;5.57;1.63;;;;;;;21.44;65.84;101765.09;4950794;28;20038;-72
2022/08/05 08:52:20;;;;;;;4.75;1.90;;;;;;;21.48;66.39;101768.56;4948029;29;20035;-72
2022/08/05 08:54:46;;;;;;;5.38;1.60;;;;;;;21.57;65.76;101779.03;4950428;28;20034;-71
2022/08/05 08:57:12;;;;;;;5.13;1.75;;;;;;;21.55;65.76;101773.81;4946798;28;20740;-70
2022/08/05 08:59:38;;;;;;;4.90;1.75;;;;;;;21.62;65.55;101775.53;4950732;28;20027;-71
2022/08/05 09:02:05;;;;;;;5.00;1.88;;;;;;;21.68;65.50;101785.09;4949434;28;20080;-71
2022/08/05 09:04:36;;;;;;;6.18;1.67;;;;;;;21.63;64.94;101786.88;4949832;28;20473;-72
2022/08/05 09:07:03;;;;;;;4.80;1.70;;;;;;;21.70;65.88;101788.59;4948677;28;20035;-71
2022/08/05 09:09:30;;;;;;;5.47;1.70;;;;;;;21.64;65.61;101796.44;4950832;28;20035;-72
2022/08/05 09:11:55;;;;;;;7.03;1.92;;;;;;;21.54;64.91;101806.09;4937702;28;20024;-73
2022/08/05 09:14:21;;;;;;;4.53;1.42;;;;;;;21.55;66.04;101799.13;4946911;28;20354;-73
2022/08/05 09:16:46;;;;;;;5.90;2.10;;;;;;;21.55;65.67;101805.22;4952337;28;20500;-72
2022/08/05 09:19:12;;;;;;;3.38;1.40;;;;;;;21.44;64.63;101801.75;4952105;28;20055;-72
2022/08/05 09:21:37;;;;;;;4.38;1.50;;;;;;;21.42;64.76;101809.59;4950120;28;20176;-71
2022/08/05 09:24:08;;;;;;;3.53;1.20;;;;;;;21.39;64.20;101813.97;4954360;28;20035;-72
2022/08/05 09:26:35;;;;;;;5.53;1.30;;;;;;;21.33;64.21;101811.34;4954491;28;20107;-72
2022/08/05 09:29:07;;;;;;;3.70;1.40;;;;;;;21.39;65.12;101812.22;4952523;29;20067;-71
2022/08/05 09:31:33;;;;;;;3.88;1.30;;;;;;;21.45;64.54;101813.94;4951779;28;20016;-72
2022/08/05 09:34:05;;;;;;;4.15;1.50;;;;;;;21.53;64.80;101814.78;4949452;29;20105;-71
2022/08/05 09:36:48;;;;;;;3.03;1.30;;;;;;;21.66;64.83;101816.53;4953628;28;20027;-72
2022/08/05 09:39:16;;;;;;;3.72;1.15;;;;;;;21.77;62.79;101813.84;4961943;28;20031;-71
2022/08/05 09:41:55;;;;;;;2.97;1.33;;;;;;;21.90;63.42;101818.19;4956337;28;20115;-71
2022/08/05 09:44:42;;;;;;;4.68;1.23;;;;;;;21.89;62.00;101816.44;4953067;28;20038;-71
2022/08/05 09:47:10;;;;;;;3.28;1.38;;;;;;;22.01;62.37;101822.50;4952558;28;20719;-72
2022/08/05 09:49:43;;;;;;;2.65;1.00;;;;;;;22.11;61.50;101819.00;4952927;28;20118;-71
2022/08/05 09:52:27;;;;;;;7.78;1.35;;;;;;;22.08;58.43;101825.09;4951459;28;20023;-73
2022/08/05 09:55:11;;;;;;;2.78;0.75;;;;;;;22.13;57.74;101825.09;4952267;28;20040;-73
2022/08/05 09:57:43;;;;;;;3.22;0.77;;;;;;;22.20;57.33;101824.19;4957576;28;20050;-72
2022/08/05 10:00:12;;;;;;;2.65;0.95;;;;;;;22.29;57.39;101832.03;4962671;28;20102;-71
2022/08/05 10:02:39;;;;;;;;;;;;;;;22.39;55.73;101832.88;4951087;28;20035;-72
2022/08/05 10:05:11;;;;;;;2.15;0.80;;;;;;;22.36;53.06;101828.50;4952551;28;19978;-71
2022/08/05 10:07:49;;;;;;;2.22;0.70;;;;;;;22.38;53.67;101829.34;4952523;28;20019;-72
2022/08/05 10:10:15;;;;;;;3.72;0.75;;;;;;;22.39;51.95;101838.97;4951684;29;20015;-72
2022/08/05 10:12:55;;;;;;;1.38;0.50;;;;;;;22.38;51.49;101841.56;4951180;28;20366;-72
2022/08/05 10:15:35;;;;;;;1.67;0.60;;;;;;;22.39;50.78;101841.59;4949891;29;20033;-72
2022/08/05 10:18:02;;;;;;;1.02;0.38;;;;;;;22.46;50.22;101838.06;4948652;28;20447;-72
2022/08/05 10:20:28;;;;;;;4.43;0.70;;;;;;;22.47;49.64;101838.91;4948862;28;20051;-72
2022/08/05 10:22:55;;;;;;;2.00;0.60;;;;;;;22.56;49.76;101841.47;4950868;28;20107;-73
2022/08/05 10:25:20;;;;;;;2.47;0.50;;;;;;;22.57;48.30;101845.84;4951326;28;20051;-72
2022/08/05 10:27:46;;;;;;;2.22;0.50;;;;;;;22.59;48.14;101843.22;4951474;28;20106;-72
2022/08/05 10:30:11;;;;;;;2.40;0.50;;;;;;;22.58;47.75;101854.59;4952331;28;20039;-72
2022/08/05 10:32:37;;;;;;;1.98;0.60;;;;;;;22.63;48.20;101852.78;4950985;28;20027;-72
2022/08/05 10:35:03;;;;;;;3.50;0.50;;;;;;;22.66;48.98;101845.78;4950733;28;20034;-72
2022/08/05 10:37:30;;;;;;;0.90;0.60;;;;;;;22.64;48.94;101854.56;4951699;28;20046;-72
2022/08/05 10:40:00;;;;;;;2.35;0.57;;;;;;;22.65;48.49;101851.06;4951737;28;20031;-72
2022/08/05 10:42:27;;;;;;;2.03;0.50;;;;;;;22.63;49.28;101848.44;4955088;28;20496;-73
2022/08/05 10:44:55;;;;;;;4.35;0.65;;;;;;;22.59;47.09;101856.31;4950917;28;20050;-72
2022/08/05 10:47:31;;;;;;;1.40;0.50;;;;;;;22.70;48.20;101849.28;4952300;28;20106;-72
2022/08/05 10:50:12;;;;;;;2.58;0.40;;;;;;;22.71;46.76;101861.50;4947514;29;20031;-73
2022/08/05 10:52:40;;;;;;;2.15;0.50;;;;;;;22.70;43.96;101863.25;4949580;29;20122;-72
2022/08/05 10:55:09;;;;;;;3.13;0.63;;;;;;;22.79;43.83;101869.31;4951565;28;20042;-73
2022/08/05 10:57:34;;;;;;;1.25;0.40;;;;;;;;;;4952178;28;20027;-71
2022/08/05 11:00:09;;;;;;;0.98;0.30;;;;;;;22.92;43.36;101873.63;4950568;28;20031;-71
2022/08/05 11:02:34;;;;;;;1.92;0.68;;;;;;;22.96;43.66;101878.84;4952106;29;20065;-71
2022/08/05 11:05:04;;;;;;;3.22;0.55;;;;;;;23.04;43.75;101877.91;4952793;28;20031;-69
2022/08/05 11:07:30;;;;;;;3.13;0.60;;;;;;;22.93;41.15;101875.34;4949414;28;20118;-69
2022/08/05 11:09:56;;;;;;;2.03;0.50;;;;;;;22.90;41.98;101875.38;4954454;28;20034;-71
2022/08/05 11:12:38;;;;;;;3.13;0.60;;;;;;;22.96;43.38;101886.69;4952240;28;20033;-71
2022/08/05 11:15:05;;;;;;;1.30;0.60;;;;;;;22.88;43.31;101893.75;4950604;28;20122;-71
2022/08/05 11:17:34;;;;;;;0.98;0.50;;;;;;;22.90;42.91;101883.25;4951981;28;20031;-71
2022/08/05 11:19:59;;;;;;;3.08;0.68;;;;;;;22.96;41.83;101889.31;4951176;28;20059;-70
2022/08/05 11:22:51;;;;;;;2.20;0.60;;;;;;;23.02;42.82;101894.53;4943255;28;20051;-71
2022/08/05 11:25:42;;;;;;;2.72;0.52;;;;;;;23.00;42.47;101895.44;4951400;28;20055;-70
2022/08/05 11:28:11;;;;;;;2.08;0.50;;;;;;;23.07;43.19;101896.25;4950265;28;20031;-71
2022/08/05 11:30:54;;;;;;;2.35;0.80;;;;;;;23.14;43.88;101898.81;4947858;28;20016;-70